sensor_id;sensor_type;location;lat;lon;timestamp;temperature;humidity
70550;DHT22;58101;48.658;2.328;2022-11-20T00:01:17;7.60;99.90
70550;DHT22;58101;48.658;2.328;2022-11-20T00:04:02;7.50;99.90
70550;DHT22;58101;48.658;2.328;2022-11-20T00:06:29;7.50;99.90
70550;DHT22;58101;48.658;2.328;2022-11-20T00:09:12;7.50;99.90
70550;DHT22;58101;48.658;2.328;2022-11-20T00:11:38;7.40;99.90
70550;DHT22;58101;48.658;2.328;2022-11-20T00:14:13;7.30;99.90
70550;DHT22;58101;48.658;2.328;2022-11-20T00:16:38;7.40;99.90
70550;DHT22;58101;48.658;2.328;2022-11-20T00:19:04;7.40;99.90
70550;DHT22;58101;48.658;2.328;2022-11-20T00:21:30;7.30;99.90
70550;DHT22;58101;48.658;2.328;2022-11-20T00:23:57;7.30;99.90
70550;DHT22;58101;48.658;2.328;2022-11-20T00:26:24;7.30;99.90
70550;DHT22;58101;48.658;2.328;2022-11-20T00:28:55;7.20;99.90
70550;DHT22;58101;48.658;2.328;2022-11-20T00:31:24;7.20;99.90
70550;DHT22;58101;48.658;2.328;2022-11-20T00:33:55;7.20;99.90
70550;DHT22;58101;48.658;2.328;2022-11-20T00:36:23;7.20;99.90
70550;DHT22;58101;48.658;2.328;2022-11-20T00:38:57;7.20;99.90
70550;DHT22;58101;48.658;2.328;2022-11-20T00:41:23;7.10;99.90
70550;DHT22;58101;48.658;2.328;2022-11-20T00:43:51;7.00;99.90
70550;DHT22;58101;48.658;2.328;2022-11-20T00:46:20;7.00;99.90
70550;DHT22;58101;48.658;2.328;2022-11-20T00:48:46;7.00;99.90
70550;DHT22;58101;48.658;2.328;2022-11-20T00:51:17;6.90;99.90
70550;DHT22;58101;48.658;2.328;2022-11-20T00:53:49;6.90;99.90
70550;DHT22;58101;48.658;2.328;2022-11-20T00:56:52;6.90;99.90
70550;DHT22;58101;48.658;2.328;2022-11-20T00:59:47;6.80;99.90
70550;DHT22;58101;48.658;2.328;2022-11-20T01:02:13;6.90;99.90
70550;DHT22;58101;48.658;2.328;2022-11-20T01:04:40;6.70;99.90
70550;DHT22;58101;48.658;2.328;2022-11-20T01:07:06;6.70;99.90
70550;DHT22;58101;48.658;2.328;2022-11-20T01:09:32;6.70;99.90
70550;DHT22;58101;48.658;2.328;2022-11-20T01:11:57;6.60;99.90
70550;DHT22;58101;48.658;2.328;2022-11-20T01:14:24;6.80;99.90
70550;DHT22;58101;48.658;2.328;2022-11-20T01:23:36;6.60;99.90
70550;DHT22;58101;48.658;2.328;2022-11-20T01:26:04;6.50;99.90
70550;DHT22;58101;48.658;2.328;2022-11-20T01:28:31;6.50;99.90
70550;DHT22;58101;48.658;2.328;2022-11-20T01:30:57;6.40;99.90
70550;DHT22;58101;48.658;2.328;2022-11-20T01:33:23;6.40;99.90
70550;DHT22;58101;48.658;2.328;2022-11-20T01:35:49;6.40;99.90
70550;DHT22;58101;48.658;2.328;2022-11-20T01:38:15;6.30;99.90
70550;DHT22;58101;48.658;2.328;2022-11-20T01:40:41;6.30;99.90
70550;DHT22;58101;48.658;2.328;2022-11-20T01:43:19;6.30;99.90
70550;DHT22;58101;48.658;2.328;2022-11-20T01:46:01;6.20;99.90
70550;DHT22;58101;48.658;2.328;2022-11-20T01:49:46;6.30;99.90
70550;DHT22;58101;48.658;2.328;2022-11-20T01:51:44;6.20;99.90
70550;DHT22;58101;48.658;2.328;2022-11-20T01:54:19;6.10;99.90
70550;DHT22;58101;48.658;2.328;2022-11-20T01:56:49;6.10;99.90
70550;DHT22;58101;48.658;2.328;2022-11-20T01:59:18;6.00;99.90
70550;DHT22;58101;48.658;2.328;2022-11-20T02:01:44;6.20;99.90
70550;DHT22;58101;48.658;2.328;2022-11-20T02:04:11;6.00;99.90
70550;DHT22;58101;48.658;2.328;2022-11-20T02:07:02;5.90;99.90
70550;DHT22;58101;48.658;2.328;2022-11-20T02:09:29;5.90;99.90
70550;DHT22;58101;48.658;2.328;2022-11-20T02:11:55;5.90;99.90
70550;DHT22;58101;48.658;2.328;2022-11-20T02:14:22;5.90;99.90
70550;DHT22;58101;48.658;2.328;2022-11-20T02:16:54;5.80;99.90
70550;DHT22;58101;48.658;2.328;2022-11-20T02:19:35;5.70;99.90
70550;DHT22;58101;48.658;2.328;2022-11-20T02:22:28;5.70;99.90
70550;DHT22;58101;48.658;2.328;2022-11-20T02:25:03;5.70;99.90
70550;DHT22;58101;48.658;2.328;2022-11-20T02:27:29;5.80;99.90
70550;DHT22;58101;48.658;2.328;2022-11-20T02:30:01;5.70;99.90
70550;DHT22;58101;48.658;2.328;2022-11-20T02:32:33;5.80;99.90
70550;DHT22;58101;48.658;2.328;2022-11-20T02:37:56;5.80;99.90
70550;DHT22;58101;48.658;2.328;2022-11-20T02:40:26;5.80;99.90
70550;DHT22;58101;48.658;2.328;2022-11-20T02:42:52;5.90;99.90
70550;DHT22;58101;48.658;2.328;2022-11-20T02:45:18;5.80;99.90
70550;DHT22;58101;48.658;2.328;2022-11-20T02:48:08;5.80;99.90
70550;DHT22;58101;48.658;2.328;2022-11-20T02:50:37;5.80;99.90
70550;DHT22;58101;48.658;2.328;2022-11-20T02:53:03;5.90;99.90
70550;DHT22;58101;48.658;2.328;2022-11-20T02:58:32;5.80;99.90
70550;DHT22;58101;48.658;2.328;2022-11-20T03:00:58;5.80;99.90
70550;DHT22;58101;48.658;2.328;2022-11-20T03:03:23;5.70;99.90
70550;DHT22;58101;48.658;2.328;2022-11-20T03:05:49;5.80;99.90
70550;DHT22;58101;48.658;2.328;2022-11-20T03:08:15;5.70;99.90
70550;DHT22;58101;48.658;2.328;2022-11-20T03:10:46;5.60;99.90
70550;DHT22;58101;48.658;2.328;2022-11-20T03:13:12;5.60;99.90
70550;DHT22;58101;48.658;2.328;2022-11-20T03:15:38;5.50;99.90
70550;DHT22;58101;48.658;2.328;2022-11-20T03:18:13;5.50;99.90
70550;DHT22;58101;48.658;2.328;2022-11-20T03:20:40;5.50;99.90
70550;DHT22;58101;48.658;2.328;2022-11-20T03:23:05;5.50;99.90
70550;DHT22;58101;48.658;2.328;2022-11-20T03:28:18;5.40;99.90
70550;DHT22;58101;48.658;2.328;2022-11-20T03:30:52;5.40;99.90
70550;DHT22;58101;48.658;2.328;2022-11-20T03:33:24;5.30;99.90
70550;DHT22;58101;48.658;2.328;2022-11-20T03:35:53;5.40;99.90
70550;DHT22;58101;48.658;2.328;2022-11-20T03:38:18;5.40;99.90
70550;DHT22;58101;48.658;2.328;2022-11-20T03:40:47;5.60;99.90
70550;DHT22;58101;48.658;2.328;2022-11-20T03:43:20;5.40;99.90
70550;DHT22;58101;48.658;2.328;2022-11-20T03:45:45;5.50;99.90
70550;DHT22;58101;48.658;2.328;2022-11-20T03:48:14;5.40;99.90
70550;DHT22;58101;48.658;2.328;2022-11-20T03:50:40;5.40;99.90
70550;DHT22;58101;48.658;2.328;2022-11-20T03:53:05;5.30;99.90
70550;DHT22;58101;48.658;2.328;2022-11-20T03:55:34;5.40;99.90
70550;DHT22;58101;48.658;2.328;2022-11-20T03:58:00;5.30;99.90
70550;DHT22;58101;48.658;2.328;2022-11-20T04:00:25;5.10;99.90
70550;DHT22;58101;48.658;2.328;2022-11-20T04:02:51;5.40;99.90
70550;DHT22;58101;48.658;2.328;2022-11-20T04:05:16;5.20;99.90
70550;DHT22;58101;48.658;2.328;2022-11-20T04:07:45;5.20;99.90
70550;DHT22;58101;48.658;2.328;2022-11-20T04:13:31;5.10;99.90
70550;DHT22;58101;48.658;2.328;2022-11-20T04:15:57;5.20;99.90
70550;DHT22;58101;48.658;2.328;2022-11-20T04:18:23;5.30;99.90
70550;DHT22;58101;48.658;2.328;2022-11-20T04:20:49;5.30;99.90
70550;DHT22;58101;48.658;2.328;2022-11-20T04:23:14;5.30;99.90
70550;DHT22;58101;48.658;2.328;2022-11-20T04:29:04;5.40;99.90
70550;DHT22;58101;48.658;2.328;2022-11-20T04:31:33;5.50;99.90
70550;DHT22;58101;48.658;2.328;2022-11-20T04:34:25;5.40;99.90
70550;DHT22;58101;48.658;2.328;2022-11-20T04:37:07;5.40;99.90
70550;DHT22;58101;48.658;2.328;2022-11-20T04:39:42;5.40;99.90
70550;DHT22;58101;48.658;2.328;2022-11-20T04:42:15;5.40;99.90
70550;DHT22;58101;48.658;2.328;2022-11-20T04:44:56;5.50;99.90
70550;DHT22;58101;48.658;2.328;2022-11-20T04:47:22;5.40;99.90
70550;DHT22;58101;48.658;2.328;2022-11-20T04:49:48;5.30;99.90
70550;DHT22;58101;48.658;2.328;2022-11-20T04:52:14;5.50;99.90
70550;DHT22;58101;48.658;2.328;2022-11-20T04:54:39;5.30;99.90
70550;DHT22;58101;48.658;2.328;2022-11-20T04:57:05;5.20;99.90
70550;DHT22;58101;48.658;2.328;2022-11-20T04:59:31;5.20;99.90
70550;DHT22;58101;48.658;2.328;2022-11-20T05:01:56;5.20;99.90
70550;DHT22;58101;48.658;2.328;2022-11-20T05:04:22;5.20;99.90
70550;DHT22;58101;48.658;2.328;2022-11-20T05:06:49;5.20;99.90
70550;DHT22;58101;48.658;2.328;2022-11-20T05:09:15;5.20;99.90
70550;DHT22;58101;48.658;2.328;2022-11-20T05:11:40;5.10;99.90
70550;DHT22;58101;48.658;2.328;2022-11-20T05:14:06;5.20;99.90
70550;DHT22;58101;48.658;2.328;2022-11-20T05:16:34;5.20;99.90
70550;DHT22;58101;48.658;2.328;2022-11-20T05:19:00;5.20;99.90
70550;DHT22;58101;48.658;2.328;2022-11-20T05:21:26;5.20;99.90
70550;DHT22;58101;48.658;2.328;2022-11-20T05:23:52;5.20;99.90
70550;DHT22;58101;48.658;2.328;2022-11-20T05:29:34;5.30;99.90
70550;DHT22;58101;48.658;2.328;2022-11-20T05:32:14;5.20;99.90
70550;DHT22;58101;48.658;2.328;2022-11-20T05:34:39;5.20;99.90
70550;DHT22;58101;48.658;2.328;2022-11-20T05:37:05;5.20;99.90
70550;DHT22;58101;48.658;2.328;2022-11-20T05:39:31;5.30;99.90
70550;DHT22;58101;48.658;2.328;2022-11-20T05:41:56;5.30;99.90
70550;DHT22;58101;48.658;2.328;2022-11-20T05:45:11;5.30;99.90
70550;DHT22;58101;48.658;2.328;2022-11-20T05:51:01;5.20;99.90
70550;DHT22;58101;48.658;2.328;2022-11-20T05:53:26;5.20;99.90
70550;DHT22;58101;48.658;2.328;2022-11-20T05:56:00;5.20;99.90
70550;DHT22;58101;48.658;2.328;2022-11-20T05:58:26;5.30;99.90
70550;DHT22;58101;48.658;2.328;2022-11-20T06:00:52;5.20;99.90
70550;DHT22;58101;48.658;2.328;2022-11-20T06:03:18;5.20;99.90
70550;DHT22;58101;48.658;2.328;2022-11-20T06:05:44;5.10;99.90
70550;DHT22;58101;48.658;2.328;2022-11-20T06:08:15;5.20;99.90
70550;DHT22;58101;48.658;2.328;2022-11-20T06:10:44;5.20;99.90
70550;DHT22;58101;48.658;2.328;2022-11-20T06:13:09;5.20;99.90
70550;DHT22;58101;48.658;2.328;2022-11-20T06:15:53;5.20;99.90
70550;DHT22;58101;48.658;2.328;2022-11-20T06:18:19;5.20;99.90
70550;DHT22;58101;48.658;2.328;2022-11-20T06:20:45;5.20;99.90
70550;DHT22;58101;48.658;2.328;2022-11-20T06:23:12;5.20;99.90
70550;DHT22;58101;48.658;2.328;2022-11-20T06:29:01;5.20;99.90
70550;DHT22;58101;48.658;2.328;2022-11-20T06:31:27;5.30;99.90
70550;DHT22;58101;48.658;2.328;2022-11-20T06:34:21;5.30;99.90
70550;DHT22;58101;48.658;2.328;2022-11-20T06:36:46;5.30;99.90
70550;DHT22;58101;48.658;2.328;2022-11-20T06:39:12;5.30;99.90
70550;DHT22;58101;48.658;2.328;2022-11-20T06:41:38;5.30;99.90
70550;DHT22;58101;48.658;2.328;2022-11-20T06:44:04;5.20;99.90
70550;DHT22;58101;48.658;2.328;2022-11-20T06:46:31;5.10;99.90
70550;DHT22;58101;48.658;2.328;2022-11-20T06:48:57;5.10;99.90
70550;DHT22;58101;48.658;2.328;2022-11-20T06:51:23;5.00;99.90
70550;DHT22;58101;48.658;2.328;2022-11-20T06:53:53;5.10;99.90
70550;DHT22;58101;48.658;2.328;2022-11-20T06:56:18;5.00;99.90
70550;DHT22;58101;48.658;2.328;2022-11-20T06:58:44;4.90;99.90
70550;DHT22;58101;48.658;2.328;2022-11-20T07:01:14;4.90;99.90
70550;DHT22;58101;48.658;2.328;2022-11-20T07:03:41;4.90;99.90
70550;DHT22;58101;48.658;2.328;2022-11-20T07:06:07;4.90;99.90
70550;DHT22;58101;48.658;2.328;2022-11-20T07:09:05;5.10;99.90
70550;DHT22;58101;48.658;2.328;2022-11-20T07:11:31;5.00;99.90
70550;DHT22;58101;48.658;2.328;2022-11-20T07:13:57;5.00;99.90
70550;DHT22;58101;48.658;2.328;2022-11-20T07:16:23;5.00;99.90
70550;DHT22;58101;48.658;2.328;2022-11-20T07:18:58;5.10;99.90
70550;DHT22;58101;48.658;2.328;2022-11-20T07:21:26;5.10;99.90
70550;DHT22;58101;48.658;2.328;2022-11-20T07:23:51;5.30;99.90
70550;DHT22;58101;48.658;2.328;2022-11-20T07:26:17;5.40;99.90
70550;DHT22;58101;48.658;2.328;2022-11-20T07:28:45;5.20;99.90
70550;DHT22;58101;48.658;2.328;2022-11-20T07:31:11;5.30;99.90
70550;DHT22;58101;48.658;2.328;2022-11-20T07:33:38;5.30;99.90
70550;DHT22;58101;48.658;2.328;2022-11-20T07:36:04;5.30;99.90
70550;DHT22;58101;48.658;2.328;2022-11-20T07:38:30;5.30;99.90
70550;DHT22;58101;48.658;2.328;2022-11-20T07:41:02;5.30;99.90
70550;DHT22;58101;48.658;2.328;2022-11-20T07:43:48;5.40;99.90
70550;DHT22;58101;48.658;2.328;2022-11-20T07:46:34;5.40;99.90
70550;DHT22;58101;48.658;2.328;2022-11-20T07:48:59;5.50;99.90
70550;DHT22;58101;48.658;2.328;2022-11-20T07:51:31;5.40;99.90
70550;DHT22;58101;48.658;2.328;2022-11-20T07:53:57;5.50;99.90
70550;DHT22;58101;48.658;2.328;2022-11-20T07:56:23;5.50;99.90
70550;DHT22;58101;48.658;2.328;2022-11-20T07:58:48;5.50;99.90
70550;DHT22;58101;48.658;2.328;2022-11-20T08:01:14;5.50;99.90
70550;DHT22;58101;48.658;2.328;2022-11-20T08:03:39;5.60;99.90
70550;DHT22;58101;48.658;2.328;2022-11-20T08:06:06;5.60;99.90
70550;DHT22;58101;48.658;2.328;2022-11-20T08:08:32;5.60;99.90
70550;DHT22;58101;48.658;2.328;2022-11-20T08:10:57;5.60;99.90
70550;DHT22;58101;48.658;2.328;2022-11-20T08:13:45;5.70;99.90
70550;DHT22;58101;48.658;2.328;2022-11-20T08:16:29;5.70;99.90
70550;DHT22;58101;48.658;2.328;2022-11-20T08:19:16;5.70;99.90
70550;DHT22;58101;48.658;2.328;2022-11-20T08:21:57;5.80;99.90
70550;DHT22;58101;48.658;2.328;2022-11-20T08:24:22;5.90;99.90
70550;DHT22;58101;48.658;2.328;2022-11-20T08:26:58;5.90;99.90
70550;DHT22;58101;48.658;2.328;2022-11-20T08:29:43;6.00;99.90
70550;DHT22;58101;48.658;2.328;2022-11-20T08:32:08;6.10;99.90
70550;DHT22;58101;48.658;2.328;2022-11-20T08:34:34;6.10;99.90
70550;DHT22;58101;48.658;2.328;2022-11-20T08:37:24;6.10;99.90
70550;DHT22;58101;48.658;2.328;2022-11-20T08:39:50;6.10;99.90
70550;DHT22;58101;48.658;2.328;2022-11-20T08:42:30;6.10;99.90
70550;DHT22;58101;48.658;2.328;2022-11-20T08:44:56;6.00;99.90
70550;DHT22;58101;48.658;2.328;2022-11-20T08:47:21;6.10;99.90
70550;DHT22;58101;48.658;2.328;2022-11-20T08:49:47;6.10;99.90
70550;DHT22;58101;48.658;2.328;2022-11-20T08:52:13;6.20;99.90
70550;DHT22;58101;48.658;2.328;2022-11-20T08:54:47;6.20;99.90
70550;DHT22;58101;48.658;2.328;2022-11-20T08:57:14;6.30;99.90
70550;DHT22;58101;48.658;2.328;2022-11-20T08:59:39;6.30;99.90
70550;DHT22;58101;48.658;2.328;2022-11-20T09:02:13;6.30;99.90
70550;DHT22;58101;48.658;2.328;2022-11-20T09:04:38;6.30;99.90
70550;DHT22;58101;48.658;2.328;2022-11-20T09:07:04;6.40;99.90
70550;DHT22;58101;48.658;2.328;2022-11-20T09:09:30;6.50;99.90
70550;DHT22;58101;48.658;2.328;2022-11-20T09:11:56;6.60;99.90
70550;DHT22;58101;48.658;2.328;2022-11-20T09:14:21;6.60;99.90
70550;DHT22;58101;48.658;2.328;2022-11-20T09:16:50;6.70;99.90
70550;DHT22;58101;48.658;2.328;2022-11-20T09:19:15;6.70;99.90
70550;DHT22;58101;48.658;2.328;2022-11-20T09:21:41;6.80;99.90
70550;DHT22;58101;48.658;2.328;2022-11-20T09:24:07;6.90;99.90
70550;DHT22;58101;48.658;2.328;2022-11-20T09:26:32;6.90;99.90
70550;DHT22;58101;48.658;2.328;2022-11-20T09:28:59;6.90;99.90
70550;DHT22;58101;48.658;2.328;2022-11-20T09:31:25;6.90;99.90
70550;DHT22;58101;48.658;2.328;2022-11-20T09:33:51;6.90;99.90
70550;DHT22;58101;48.658;2.328;2022-11-20T09:36:17;6.90;99.90
70550;DHT22;58101;48.658;2.328;2022-11-20T09:38:45;6.90;99.90
70550;DHT22;58101;48.658;2.328;2022-11-20T09:47:08;6.90;99.90
70550;DHT22;58101;48.658;2.328;2022-11-20T09:52:37;7.00;99.90
70550;DHT22;58101;48.658;2.328;2022-11-20T09:55:12;7.00;99.90
70550;DHT22;58101;48.658;2.328;2022-11-20T09:57:45;7.10;99.90
70550;DHT22;58101;48.658;2.328;2022-11-20T10:00:14;7.20;99.90
70550;DHT22;58101;48.658;2.328;2022-11-20T10:02:47;7.30;99.90
70550;DHT22;58101;48.658;2.328;2022-11-20T10:05:26;7.20;99.90
70550;DHT22;58101;48.658;2.328;2022-11-20T10:10:39;7.20;99.90
70550;DHT22;58101;48.658;2.328;2022-11-20T10:13:20;7.20;99.90
70550;DHT22;58101;48.658;2.328;2022-11-20T10:29:35;7.40;99.90
70550;DHT22;58101;48.658;2.328;2022-11-20T10:32:14;7.50;99.90
70550;DHT22;58101;48.658;2.328;2022-11-20T10:34:50;7.70;99.90
70550;DHT22;58101;48.658;2.328;2022-11-20T10:37:24;8.10;99.90
70550;DHT22;58101;48.658;2.328;2022-11-20T10:40:05;8.50;99.90
70550;DHT22;58101;48.658;2.328;2022-11-20T10:42:46;8.50;99.90
70550;DHT22;58101;48.658;2.328;2022-11-20T10:47:53;8.30;99.90
70550;DHT22;58101;48.658;2.328;2022-11-20T10:50:21;8.30;99.90
70550;DHT22;58101;48.658;2.328;2022-11-20T10:52:53;8.20;99.90
70550;DHT22;58101;48.658;2.328;2022-11-20T10:55:44;8.10;99.90
70550;DHT22;58101;48.658;2.328;2022-11-20T10:58:26;8.10;99.90
70550;DHT22;58101;48.658;2.328;2022-11-20T11:01:04;8.10;99.90
70550;DHT22;58101;48.658;2.328;2022-11-20T11:03:31;8.00;99.90
70550;DHT22;58101;48.658;2.328;2022-11-20T11:06:03;7.90;99.90
70550;DHT22;58101;48.658;2.328;2022-11-20T11:08:36;7.90;99.90
70550;DHT22;58101;48.658;2.328;2022-11-20T11:11:22;7.80;99.90
70550;DHT22;58101;48.658;2.328;2022-11-20T11:13:48;7.90;99.90
70550;DHT22;58101;48.658;2.328;2022-11-20T11:16:26;7.80;99.90
70550;DHT22;58101;48.658;2.328;2022-11-20T11:19:02;7.90;99.90
70550;DHT22;58101;48.658;2.328;2022-11-20T11:21:29;7.90;99.90
70550;DHT22;58101;48.658;2.328;2022-11-20T11:24:03;7.90;99.90
70550;DHT22;58101;48.658;2.328;2022-11-20T11:26:29;8.00;99.90
70550;DHT22;58101;48.658;2.328;2022-11-20T11:29:00;8.00;99.90
70550;DHT22;58101;48.658;2.328;2022-11-20T11:31:31;8.00;99.90
70550;DHT22;58101;48.658;2.328;2022-11-20T11:34:07;8.10;99.90
70550;DHT22;58101;48.658;2.328;2022-11-20T11:36:34;8.00;99.90
70550;DHT22;58101;48.658;2.328;2022-11-20T11:39:02;8.00;99.90
70550;DHT22;58101;48.658;2.328;2022-11-20T11:41:31;7.90;99.90
70550;DHT22;58101;48.658;2.328;2022-11-20T11:44:24;7.90;99.90
70550;DHT22;58101;48.658;2.328;2022-11-20T11:47:25;7.90;99.90
70550;DHT22;58101;48.658;2.328;2022-11-20T12:06:57;7.70;99.90
70550;DHT22;58101;48.658;2.328;2022-11-20T12:09:26;7.70;99.90
70550;DHT22;58101;48.658;2.328;2022-11-20T12:12:08;7.70;99.90
70550;DHT22;58101;48.658;2.328;2022-11-20T12:14:37;7.70;99.90
70550;DHT22;58101;48.658;2.328;2022-11-20T12:17:04;7.60;99.90
70550;DHT22;58101;48.658;2.328;2022-11-20T12:19:33;7.60;99.90
70550;DHT22;58101;48.658;2.328;2022-11-20T12:22:24;7.60;99.90
70550;DHT22;58101;48.658;2.328;2022-11-20T12:31:13;7.70;99.90
70550;DHT22;58101;48.658;2.328;2022-11-20T12:33:46;7.70;99.90
70550;DHT22;58101;48.658;2.328;2022-11-20T12:42:02;7.90;99.90
70550;DHT22;58101;48.658;2.328;2022-11-20T12:48:17;8.00;99.90
70550;DHT22;58101;48.658;2.328;2022-11-20T12:51:33;8.00;99.90
70550;DHT22;58101;48.658;2.328;2022-11-20T13:05:22;8.20;99.90
70550;DHT22;58101;48.658;2.328;2022-11-20T13:07:52;8.10;99.90
70550;DHT22;58101;48.658;2.328;2022-11-20T13:12:56;8.20;99.90
70550;DHT22;58101;48.658;2.328;2022-11-20T13:15:40;8.20;99.90
70550;DHT22;58101;48.658;2.328;2022-11-20T13:18:09;8.20;99.90
70550;DHT22;58101;48.658;2.328;2022-11-20T13:20:36;8.20;99.90
70550;DHT22;58101;48.658;2.328;2022-11-20T13:23:06;8.30;99.90
70550;DHT22;58101;48.658;2.328;2022-11-20T13:25:34;8.30;99.90
70550;DHT22;58101;48.658;2.328;2022-11-20T13:28:04;8.30;99.90
70550;DHT22;58101;48.658;2.328;2022-11-20T13:30:31;8.40;99.90
70550;DHT22;58101;48.658;2.328;2022-11-20T13:33:07;8.50;99.90
70550;DHT22;58101;48.658;2.328;2022-11-20T13:35:36;8.50;99.90
70550;DHT22;58101;48.658;2.328;2022-11-20T13:38:07;8.50;99.90
70550;DHT22;58101;48.658;2.328;2022-11-20T13:45:59;8.60;99.90
70550;DHT22;58101;48.658;2.328;2022-11-20T13:48:31;8.80;99.90
70550;DHT22;58101;48.658;2.328;2022-11-20T14:02:15;9.30;99.90
70550;DHT22;58101;48.658;2.328;2022-11-20T14:04:54;9.20;99.90
70550;DHT22;58101;48.658;2.328;2022-11-20T14:07:40;9.30;99.90
70550;DHT22;58101;48.658;2.328;2022-11-20T14:10:23;9.40;99.90
70550;DHT22;58101;48.658;2.328;2022-11-20T14:12:55;9.40;99.90
70550;DHT22;58101;48.658;2.328;2022-11-20T14:15:31;9.40;99.90
70550;DHT22;58101;48.658;2.328;2022-11-20T14:17:58;9.40;99.90
70550;DHT22;58101;48.658;2.328;2022-11-20T14:20:28;9.40;99.90
70550;DHT22;58101;48.658;2.328;2022-11-20T14:22:55;9.40;99.90
70550;DHT22;58101;48.658;2.328;2022-11-20T14:25:25;9.60;99.90
70550;DHT22;58101;48.658;2.328;2022-11-20T14:28:00;9.50;99.90
70550;DHT22;58101;48.658;2.328;2022-11-20T14:30:28;9.60;99.90
70550;DHT22;58101;48.658;2.328;2022-11-20T14:32:57;9.60;99.90
70550;DHT22;58101;48.658;2.328;2022-11-20T14:35:37;9.70;99.90
70550;DHT22;58101;48.658;2.328;2022-11-20T14:38:11;9.70;99.90
70550;DHT22;58101;48.658;2.328;2022-11-20T14:40:38;9.70;99.90
70550;DHT22;58101;48.658;2.328;2022-11-20T14:43:23;9.70;99.90
70550;DHT22;58101;48.658;2.328;2022-11-20T14:46:13;9.70;99.90
70550;DHT22;58101;48.658;2.328;2022-11-20T14:48:46;9.70;99.90
70550;DHT22;58101;48.658;2.328;2022-11-20T14:51:33;9.70;99.90
70550;DHT22;58101;48.658;2.328;2022-11-20T14:54:19;9.70;99.90
70550;DHT22;58101;48.658;2.328;2022-11-20T14:57:03;9.70;99.90
70550;DHT22;58101;48.658;2.328;2022-11-20T14:59:33;9.80;99.90
70550;DHT22;58101;48.658;2.328;2022-11-20T15:02:10;9.90;99.90
70550;DHT22;58101;48.658;2.328;2022-11-20T15:04:50;10.00;99.90
70550;DHT22;58101;48.658;2.328;2022-11-20T15:07:34;10.00;99.90
70550;DHT22;58101;48.658;2.328;2022-11-20T15:10:06;10.00;99.90
70550;DHT22;58101;48.658;2.328;2022-11-20T15:12:34;10.00;99.90
70550;DHT22;58101;48.658;2.328;2022-11-20T15:15:01;10.00;99.90
70550;DHT22;58101;48.658;2.328;2022-11-20T15:20:43;9.90;99.90
70550;DHT22;58101;48.658;2.328;2022-11-20T15:23:14;9.80;99.90
70550;DHT22;58101;48.658;2.328;2022-11-20T15:25:41;9.80;99.90
70550;DHT22;58101;48.658;2.328;2022-11-20T15:28:18;9.80;99.90
70550;DHT22;58101;48.658;2.328;2022-11-20T15:30:45;9.80;99.90
70550;DHT22;58101;48.658;2.328;2022-11-20T15:33:11;9.70;99.90
70550;DHT22;58101;48.658;2.328;2022-11-20T15:35:41;9.70;99.90
70550;DHT22;58101;48.658;2.328;2022-11-20T15:38:07;9.70;99.90
70550;DHT22;58101;48.658;2.328;2022-11-20T15:40:32;9.70;99.90
70550;DHT22;58101;48.658;2.328;2022-11-20T15:42:58;9.70;99.90
70550;DHT22;58101;48.658;2.328;2022-11-20T15:48:27;9.60;99.90
70550;DHT22;58101;48.658;2.328;2022-11-20T15:54:25;9.60;99.90
70550;DHT22;58101;48.658;2.328;2022-11-20T15:56:53;9.50;99.90
70550;DHT22;58101;48.658;2.328;2022-11-20T15:59:19;9.50;99.90
70550;DHT22;58101;48.658;2.328;2022-11-20T16:01:51;9.60;99.90
70550;DHT22;58101;48.658;2.328;2022-11-20T16:04:17;9.40;99.90
70550;DHT22;58101;48.658;2.328;2022-11-20T16:06:43;9.30;99.90
70550;DHT22;58101;48.658;2.328;2022-11-20T16:09:12;9.30;99.90
70550;DHT22;58101;48.658;2.328;2022-11-20T16:11:38;9.20;99.90
70550;DHT22;58101;48.658;2.328;2022-11-20T16:14:04;9.10;99.90
70550;DHT22;58101;48.658;2.328;2022-11-20T16:16:48;9.00;99.90
70550;DHT22;58101;48.658;2.328;2022-11-20T16:19:21;8.90;99.90
70550;DHT22;58101;48.658;2.328;2022-11-20T16:21:47;8.90;99.90
70550;DHT22;58101;48.658;2.328;2022-11-20T16:24:13;8.80;99.90
70550;DHT22;58101;48.658;2.328;2022-11-20T16:26:40;8.70;99.90
70550;DHT22;58101;48.658;2.328;2022-11-20T16:29:06;8.70;99.90
70550;DHT22;58101;48.658;2.328;2022-11-20T16:31:32;8.70;99.90
70550;DHT22;58101;48.658;2.328;2022-11-20T16:34:01;8.60;99.90
70550;DHT22;58101;48.658;2.328;2022-11-20T16:36:36;8.60;99.90
70550;DHT22;58101;48.658;2.328;2022-11-20T16:39:04;8.50;99.90
70550;DHT22;58101;48.658;2.328;2022-11-20T16:41:32;8.50;99.90
70550;DHT22;58101;48.658;2.328;2022-11-20T16:44:09;8.40;99.90
70550;DHT22;58101;48.658;2.328;2022-11-20T16:46:36;8.30;99.90
70550;DHT22;58101;48.658;2.328;2022-11-20T16:49:05;8.30;99.90
70550;DHT22;58101;48.658;2.328;2022-11-20T16:51:37;8.20;99.90
70550;DHT22;58101;48.658;2.328;2022-11-20T16:54:08;8.20;99.90
70550;DHT22;58101;48.658;2.328;2022-11-20T16:56:49;8.10;99.90
70550;DHT22;58101;48.658;2.328;2022-11-20T16:59:22;8.10;99.90
70550;DHT22;58101;48.658;2.328;2022-11-20T17:01:48;8.00;99.90
70550;DHT22;58101;48.658;2.328;2022-11-20T17:04:16;8.00;99.90
70550;DHT22;58101;48.658;2.328;2022-11-20T17:06:43;8.00;99.90
70550;DHT22;58101;48.658;2.328;2022-11-20T17:09:09;8.10;99.90
70550;DHT22;58101;48.658;2.328;2022-11-20T17:11:36;7.90;99.90
70550;DHT22;58101;48.658;2.328;2022-11-20T17:14:04;8.00;99.90
70550;DHT22;58101;48.658;2.328;2022-11-20T17:16:48;8.00;99.90
70550;DHT22;58101;48.658;2.328;2022-11-20T17:19:14;8.00;99.90
70550;DHT22;58101;48.658;2.328;2022-11-20T17:21:40;8.00;99.90
70550;DHT22;58101;48.658;2.328;2022-11-20T17:24:09;8.00;99.90
70550;DHT22;58101;48.658;2.328;2022-11-20T17:26:37;8.00;99.90
70550;DHT22;58101;48.658;2.328;2022-11-20T17:29:05;8.00;99.90
70550;DHT22;58101;48.658;2.328;2022-11-20T17:31:35;8.00;99.90
70550;DHT22;58101;48.658;2.328;2022-11-20T17:34:03;7.90;99.90
70550;DHT22;58101;48.658;2.328;2022-11-20T17:36:30;7.90;99.90
70550;DHT22;58101;48.658;2.328;2022-11-20T17:38:56;7.90;99.90
70550;DHT22;58101;48.658;2.328;2022-11-20T17:41:23;7.80;99.90
70550;DHT22;58101;48.658;2.328;2022-11-20T17:43:55;8.00;99.90
70550;DHT22;58101;48.658;2.328;2022-11-20T17:46:23;7.80;99.90
70550;DHT22;58101;48.658;2.328;2022-11-20T17:48:49;7.70;99.90
70550;DHT22;58101;48.658;2.328;2022-11-20T17:51:32;7.70;99.90
70550;DHT22;58101;48.658;2.328;2022-11-20T17:54:01;7.60;99.90
70550;DHT22;58101;48.658;2.328;2022-11-20T17:56:31;7.50;99.90
70550;DHT22;58101;48.658;2.328;2022-11-20T17:59:16;7.50;99.90
70550;DHT22;58101;48.658;2.328;2022-11-20T18:01:43;7.50;99.90
70550;DHT22;58101;48.658;2.328;2022-11-20T18:04:09;7.40;99.90
70550;DHT22;58101;48.658;2.328;2022-11-20T18:06:37;7.40;99.90
70550;DHT22;58101;48.658;2.328;2022-11-20T18:09:02;7.40;99.90
70550;DHT22;58101;48.658;2.328;2022-11-20T18:11:36;7.40;99.90
70550;DHT22;58101;48.658;2.328;2022-11-20T18:14:04;7.40;99.90
70550;DHT22;58101;48.658;2.328;2022-11-20T18:16:51;7.30;99.90
70550;DHT22;58101;48.658;2.328;2022-11-20T18:19:23;7.30;99.90
70550;DHT22;58101;48.658;2.328;2022-11-20T18:21:49;7.30;99.90